Impacts TAF Board
For situational awareness. Not to be used for flight planning purposes.
IDs:

KICT - Wichita/Mid Continen, KS, US

Issued at 0520 UTC 16 Jul 2019
Updated at 1017 UTC 16 Jul 2019
Potential Impact None Slight Moderate High
Time0953Z 16/11Z 16/12Z 16/13Z 16/14Z 16/15Z 16/16Z 16/17Z 16/18Z 16/19Z 16/20Z 16/21Z 16/22Z 16/23Z>>
Type OBS PRVL PRVL PRVL PRVL PRVL PRVL PRVL PRVL PRVL PRVL PRVL PRVL PRVL
VIS 10 >6 >6 >6 >6 >6 >6 >6 >6 >6 >6 >6 >6 >6
CIG -- -- -- -- -- -- -- -- -- -- -- -- -- --
Cover FEW SKC SKC SKC SKC SKC SKC SKC SKC SKC FEW FEW FEW FEW
FltCat VFR VFR VFR VFR VFR VFR VFR VFR VFR VFR VFR VFR VFR VFR
WX -- -- -- -- -- -- -- -- -- -- -- -- -- --
WDir 160 120 120 120 120 160 160 160 160 160 150 150 150 150
WSpd 3 7 7 7 7 7 7 7 7 7 8 8 8 8
WGst -- -- -- -- -- -- -- -- -- -- -- -- -- --
Raw TAF
KICT 160520Z 1606/1706 12007KT P6SM SKC
  FM161500 16007KT P6SM SKC
  FM162000 15008KT P6SM FEW060
  FM170000 15005KT P6SM FEW250


Raw METAR
KICT 160953Z COR 16003KT 10SM FEW250 21/19 A2991 RMK AO2 SLP111 T02110189
KICT 160853Z 18004KT 10SM CLR 22/19 A2992 RMK AO2 SLP114 T02170189 58005
KICT 160753Z 15005KT 10SM CLR 22/19 A2992 RMK AO2 SLP116 T02170194

METAR Board
Radar Display
Forecast Discussion
For situational awareness. Not to be used for flight planning purposes.